createdAt,value
2023-03-20T00:02:25.793Z,14.51
2023-03-20T00:04:54.306Z,14.52
2023-03-20T00:07:22.781Z,14.53
2023-03-20T00:09:51.250Z,14.52
2023-03-20T00:12:27.171Z,14.55
2023-03-20T00:14:55.742Z,14.58
2023-03-20T00:17:24.161Z,14.60
2023-03-20T00:19:52.626Z,14.64
2023-03-20T00:22:21.157Z,14.69
2023-03-20T00:24:49.734Z,14.72
2023-03-20T00:27:21.082Z,14.76
2023-03-20T00:29:49.550Z,14.80
2023-03-20T00:32:18.284Z,14.85
2023-03-20T00:34:46.984Z,14.88
2023-03-20T00:37:15.537Z,14.92
2023-03-20T00:39:43.981Z,14.94
2023-03-20T00:42:22.444Z,14.96
2023-03-20T00:44:54.499Z,15.01
2023-03-20T00:47:24.633Z,15.04
2023-03-20T00:49:55.962Z,15.07
2023-03-20T00:52:26.064Z,15.12
2023-03-20T00:54:54.746Z,15.15
2023-03-20T00:57:29.049Z,15.16
2023-03-20T01:00:05.344Z,15.16
2023-03-20T01:02:34.359Z,15.18
2023-03-20T01:05:03.839Z,15.16
2023-03-20T01:07:32.652Z,15.14
2023-03-20T01:10:01.235Z,15.11
2023-03-20T01:12:31.003Z,15.06
2023-03-20T01:15:00.574Z,15.02
2023-03-20T01:17:30.474Z,14.98
2023-03-20T01:19:58.908Z,14.92
2023-03-20T01:22:27.377Z,14.87
2023-03-20T01:24:55.856Z,14.81
2023-03-20T01:27:24.509Z,14.76
2023-03-20T01:29:54.324Z,14.69
2023-03-20T01:32:22.745Z,14.66
2023-03-20T01:34:51.409Z,14.61
2023-03-20T01:37:27.198Z,14.55
2023-03-20T01:39:57.274Z,14.50
2023-03-20T01:42:26.120Z,14.45
2023-03-20T01:44:55.991Z,14.40
2023-03-20T01:47:27.791Z,14.37
2023-03-20T01:50:32.140Z,14.31
2023-03-20T01:53:08.702Z,14.28
2023-03-20T01:55:39.564Z,14.26
2023-03-20T01:58:15.384Z,14.24
2023-03-20T02:00:46.370Z,14.21
2023-03-20T02:03:14.892Z,14.20
2023-03-20T02:05:44.877Z,14.21
2023-03-20T02:08:28.250Z,14.20
2023-03-20T02:10:58.521Z,14.21
2023-03-20T02:13:30.382Z,14.22
2023-03-20T02:16:08.506Z,14.22
2023-03-20T02:18:38.143Z,14.24
2023-03-20T02:21:55.100Z,14.21
2023-03-20T02:25:29.614Z,14.16
2023-03-20T02:28:58.748Z,14.13
2023-03-20T02:32:15.553Z,14.08
2023-03-20T02:35:28.961Z,14.05
2023-03-20T02:38:21.641Z,14.04
2023-03-20T02:41:00.134Z,14.03
2023-03-20T02:43:42.620Z,14.02
2023-03-20T02:46:22.584Z,14.02
2023-03-20T02:48:58.206Z,14.02
2023-03-20T02:51:37.888Z,14.03
2023-03-20T02:54:15.508Z,14.02
2023-03-20T02:56:57.434Z,14.01
2023-03-20T02:59:34.185Z,14.00
2023-03-20T03:02:09.817Z,13.99
2023-03-20T03:04:43.846Z,13.97
2023-03-20T03:07:16.141Z,13.99
2023-03-20T03:09:52.658Z,13.98
2023-03-20T03:12:25.174Z,13.99
2023-03-20T03:14:56.486Z,14.01
2023-03-20T03:17:29.008Z,14.02
2023-03-20T03:20:05.703Z,14.03
2023-03-20T03:22:36.364Z,14.07
2023-03-20T03:25:07.986Z,14.09
2023-03-20T03:27:42.229Z,14.12
2023-03-20T03:30:18.801Z,14.13
2023-03-20T03:32:52.536Z,14.13
2023-03-20T03:35:24.677Z,14.14
2023-03-20T03:38:02.378Z,14.12
2023-03-20T03:40:39.881Z,14.12
2023-03-20T03:43:15.330Z,14.11
2023-03-20T03:45:50.760Z,14.09
2023-03-20T03:48:24.704Z,14.10
2023-03-20T03:50:57.615Z,14.08
2023-03-20T03:53:33.048Z,14.09
2023-03-20T03:56:07.496Z,14.09
2023-03-20T03:58:42.988Z,14.08
2023-03-20T04:01:14.044Z,14.08
2023-03-20T04:03:50.210Z,14.07
2023-03-20T04:06:19.387Z,14.11
2023-03-20T04:08:47.806Z,14.09
2023-03-20T04:11:20.306Z,14.09
2023-03-20T04:13:51.491Z,14.09
2023-03-20T04:16:22.365Z,14.10
2023-03-20T04:18:51.542Z,14.12
2023-03-20T04:21:20.189Z,14.11
2023-03-20T04:23:48.617Z,14.11
2023-03-20T04:26:18.427Z,14.11
2023-03-20T04:28:46.916Z,14.11
2023-03-20T04:31:15.377Z,14.08
2023-03-20T04:33:43.839Z,14.07
2023-03-20T04:36:13.553Z,14.06
2023-03-20T04:38:42.609Z,14.05
2023-03-20T04:41:11.090Z,14.05
2023-03-20T04:43:41.470Z,14.02
2023-03-20T04:46:09.916Z,14.02
2023-03-20T04:48:38.326Z,14.01
2023-03-20T04:51:07.905Z,14.00
2023-03-20T04:53:36.789Z,14.01
2023-03-20T04:56:05.594Z,14.00
2023-03-20T04:58:35.974Z,13.98
2023-03-20T05:01:06.184Z,13.96
2023-03-20T05:03:35.354Z,13.96
2023-03-20T05:06:03.888Z,13.96
2023-03-20T05:08:32.433Z,13.95
2023-03-20T05:11:00.896Z,13.97
2023-03-20T05:13:29.301Z,13.97
2023-03-20T05:15:57.708Z,13.98
2023-03-20T05:18:27.537Z,13.99
2023-03-20T05:20:55.963Z,14.02
2023-03-20T05:23:24.340Z,14.03
2023-03-20T05:25:52.773Z,14.06
2023-03-20T05:28:21.168Z,14.11
2023-03-20T05:30:49.692Z,14.15
2023-03-20T05:33:18.184Z,14.23
2023-03-20T05:35:48.332Z,14.29
2023-03-20T05:38:16.773Z,14.37
2023-03-20T05:40:45.251Z,14.45
2023-03-20T05:43:13.660Z,14.54
2023-03-20T05:45:43.383Z,14.63
2023-03-20T05:48:11.960Z,14.71
2023-03-20T05:50:40.955Z,14.80
2023-03-20T05:53:11.012Z,14.89
2023-03-20T05:55:39.722Z,14.96
2023-03-20T05:58:08.283Z,15.05
2023-03-20T06:00:36.678Z,15.11
2023-03-20T06:03:06.883Z,15.18
2023-03-20T06:05:35.968Z,15.22
2023-03-20T06:08:05.717Z,15.26
2023-03-20T06:10:35.523Z,15.27
2023-03-20T06:13:04.004Z,15.30
2023-03-20T06:15:32.659Z,15.32
2023-03-20T06:18:01.364Z,15.37
2023-03-20T06:20:29.913Z,15.42
2023-03-20T06:22:58.423Z,15.49
2023-03-20T06:25:26.938Z,15.53
2023-03-20T06:27:57.832Z,15.59
2023-03-20T06:30:26.423Z,15.64
2023-03-20T06:32:54.881Z,15.72
2023-03-20T06:35:23.444Z,15.77
2023-03-20T06:37:51.961Z,15.86
2023-03-20T06:40:21.798Z,15.96
2023-03-20T06:42:50.408Z,16.05
2023-03-20T06:45:20.913Z,16.14
2023-03-20T06:47:49.391Z,16.24
2023-03-20T06:50:18.357Z,16.34
2023-03-20T06:52:47.522Z,16.45
2023-03-20T06:55:16.229Z,16.55
2023-03-20T06:57:44.656Z,16.66
2023-03-20T07:00:15.084Z,16.74
2023-03-20T07:02:45.138Z,16.88
2023-03-20T07:05:13.851Z,16.98
2023-03-20T07:07:42.342Z,17.09
2023-03-20T07:10:12.573Z,17.22
2023-03-20T07:12:41.098Z,17.31
2023-03-20T07:15:11.309Z,17.41
2023-03-20T07:17:39.820Z,17.50
2023-03-20T07:20:11.987Z,17.59
2023-03-20T07:22:41.572Z,17.71
2023-03-20T07:25:11.329Z,17.79
2023-03-20T07:27:39.796Z,17.88
2023-03-20T07:30:09.999Z,17.97
2023-03-20T07:32:38.684Z,18.07
2023-03-20T07:35:10.440Z,18.20
2023-03-20T07:37:39.191Z,18.36
2023-03-20T07:40:09.623Z,18.50
2023-03-20T07:42:38.154Z,18.64
2023-03-20T07:45:09.403Z,18.78
2023-03-20T07:47:38.331Z,18.96
2023-03-20T07:50:09.753Z,19.14
2023-03-20T07:52:38.378Z,19.32
2023-03-20T07:55:07.797Z,19.48
2023-03-20T07:57:36.246Z,19.66
2023-03-20T08:00:07.306Z,19.84
2023-03-20T08:02:35.834Z,19.99
2023-03-20T08:05:04.681Z,20.11
2023-03-20T08:07:35.292Z,20.17
2023-03-20T08:10:04.694Z,20.19
2023-03-20T08:12:33.236Z,20.24
2023-03-20T08:15:01.711Z,20.33
2023-03-20T08:17:30.133Z,20.39
2023-03-20T08:19:58.714Z,20.43
2023-03-20T08:22:27.229Z,20.49
2023-03-20T08:24:57.017Z,20.57
2023-03-20T08:27:25.615Z,20.63
2023-03-20T08:29:54.129Z,20.65
2023-03-20T08:32:22.644Z,20.70
2023-03-20T08:34:51.256Z,20.75
2023-03-20T08:37:20.610Z,20.82
2023-03-20T08:39:49.371Z,20.86
2023-03-20T08:42:19.211Z,20.91
2023-03-20T08:44:48.267Z,20.95
2023-03-20T08:47:16.771Z,20.94
2023-03-20T08:49:45.255Z,20.96
2023-03-20T08:52:13.684Z,21.00
2023-03-20T08:54:42.174Z,21.00
2023-03-20T08:57:10.682Z,20.97
2023-03-20T08:59:40.502Z,20.97
2023-03-20T09:02:12.062Z,21.02
2023-03-20T09:04:40.935Z,21.07
2023-03-20T09:07:09.528Z,21.12
2023-03-20T09:09:37.996Z,21.16
2023-03-20T09:12:07.462Z,21.19
2023-03-20T09:14:36.520Z,21.20
2023-03-20T09:17:06.966Z,21.24
2023-03-20T09:19:37.944Z,21.32
2023-03-20T09:22:06.484Z,21.42
2023-03-20T09:24:35.516Z,21.51
2023-03-20T09:27:04.015Z,21.57
2023-03-20T09:29:32.626Z,21.58
2023-03-20T09:32:01.195Z,21.61
2023-03-20T09:34:31.034Z,21.60
2023-03-20T09:36:59.531Z,21.56
2023-03-20T09:39:28.107Z,21.56
2023-03-20T09:41:57.918Z,21.56
2023-03-20T09:44:47.279Z,21.58
2023-03-20T09:47:24.136Z,21.63
2023-03-20T09:50:07.937Z,21.69
2023-03-20T09:52:42.110Z,21.76
2023-03-20T09:55:17.583Z,21.80
2023-03-20T09:57:51.761Z,21.87
2023-03-20T10:00:24.698Z,21.93
2023-03-20T10:02:59.441Z,22.00
2023-03-20T10:05:33.040Z,22.02
2023-03-20T10:08:04.355Z,22.05
2023-03-20T10:10:46.749Z,22.07
2023-03-20T10:13:41.156Z,22.29
2023-03-20T10:16:20.861Z,22.31
2023-03-20T10:19:03.166Z,22.31
2023-03-20T10:21:43.783Z,22.30
2023-03-20T10:24:20.731Z,22.34
2023-03-20T10:26:54.963Z,22.42
2023-03-20T10:29:34.903Z,22.45
2023-03-20T10:32:12.474Z,22.48
2023-03-20T10:34:54.524Z,22.49
2023-03-20T10:37:45.840Z,22.52
2023-03-20T10:40:31.970Z,22.58
2023-03-20T10:43:03.910Z,22.62
2023-03-20T10:45:39.957Z,22.73
2023-03-20T10:48:18.303Z,22.98
2023-03-20T10:50:52.758Z,23.29
2023-03-20T10:53:31.367Z,23.54
2023-03-20T10:56:04.775Z,23.78
2023-03-20T10:58:40.788Z,23.94
2023-03-20T11:01:09.972Z,24.03
2023-03-20T11:03:39.986Z,24.02
2023-03-20T11:06:18.946Z,24.15
2023-03-20T11:08:52.183Z,24.52
2023-03-20T11:11:28.111Z,24.77
2023-03-20T11:13:57.258Z,24.88
2023-03-20T11:16:33.073Z,24.91
2023-03-20T11:19:09.578Z,25.01
2023-03-20T11:21:48.647Z,25.04
2023-03-20T11:24:35.324Z,24.99
2023-03-20T11:27:08.624Z,24.94
2023-03-20T11:29:37.524Z,25.03
2023-03-20T11:32:17.222Z,25.05
2023-03-20T11:34:46.097Z,25.06
2023-03-20T11:37:26.037Z,25.01
2023-03-20T11:40:15.275Z,24.89
2023-03-20T11:42:55.145Z,25.08
2023-03-20T11:45:23.987Z,25.40
2023-03-20T11:47:55.283Z,25.56
2023-03-20T11:50:32.441Z,25.70
2023-03-20T11:53:01.971Z,25.75
2023-03-20T11:55:33.941Z,25.69
2023-03-20T11:58:05.921Z,25.66
2023-03-20T12:00:39.813Z,25.63
2023-03-20T12:03:55.515Z,25.82
2023-03-20T12:06:28.007Z,26.41
2023-03-20T12:09:00.220Z,27.17
2023-03-20T12:11:46.625Z,27.83
2023-03-20T12:14:25.914Z,28.43
2023-03-20T12:17:06.599Z,28.83
2023-03-20T12:19:36.587Z,29.15
2023-03-20T12:22:19.781Z,29.11
2023-03-20T12:24:56.280Z,28.73
2023-03-20T12:27:34.861Z,28.36
2023-03-20T12:30:11.680Z,28.11
2023-03-20T12:32:47.326Z,27.93
2023-03-20T12:35:21.810Z,27.75
2023-03-20T12:37:51.221Z,27.45
2023-03-20T12:40:27.812Z,27.28
2023-03-20T12:43:12.193Z,27.33
2023-03-20T12:45:47.039Z,27.39
2023-03-20T12:48:47.364Z,27.68
2023-03-20T12:51:25.059Z,28.27
2023-03-20T12:54:09.343Z,28.95
2023-03-20T12:57:00.319Z,29.29
2023-03-20T12:59:42.926Z,29.36
2023-03-20T13:02:31.395Z,29.05
2023-03-20T13:05:16.630Z,28.67
2023-03-20T13:08:04.435Z,28.37
2023-03-20T13:10:39.138Z,28.19
2023-03-20T13:13:21.642Z,28.10
2023-03-20T13:16:06.207Z,28.11
2023-03-20T13:18:50.287Z,28.10
2023-03-20T13:21:28.631Z,28.18
2023-03-20T13:24:13.014Z,28.33
2023-03-20T13:26:49.848Z,28.35
2023-03-20T13:29:27.934Z,28.09
2023-03-20T13:32:14.969Z,27.71
2023-03-20T13:35:12.619Z,27.38
2023-03-20T13:37:44.994Z,27.04
2023-03-20T13:40:21.986Z,26.68
2023-03-20T13:42:56.561Z,26.39
2023-03-20T13:45:36.259Z,26.18
2023-03-20T13:48:25.467Z,25.91
2023-03-20T13:51:02.240Z,25.63
2023-03-20T13:53:39.519Z,25.36
2023-03-20T13:56:21.652Z,25.19
2023-03-20T13:59:11.529Z,25.04
2023-03-20T14:01:51.426Z,24.97
2023-03-20T14:04:25.906Z,24.93
2023-03-20T14:06:56.946Z,24.95
2023-03-20T14:09:43.159Z,24.90
2023-03-20T14:12:14.293Z,24.90
2023-03-20T14:14:47.656Z,24.86
2023-03-20T14:17:21.098Z,24.78
2023-03-20T14:19:52.140Z,24.70
2023-03-20T14:22:24.124Z,24.65
2023-03-20T14:24:58.536Z,24.61
2023-03-20T14:27:44.022Z,24.56
2023-03-20T14:30:45.947Z,24.39
2023-03-20T14:33:31.443Z,24.31
2023-03-20T14:36:27.615Z,24.20
2023-03-20T14:39:12.162Z,24.12
2023-03-20T14:42:01.442Z,24.03
2023-03-20T14:44:50.765Z,23.91
2023-03-20T14:47:31.795Z,23.84
2023-03-20T14:50:11.304Z,23.82
2023-03-20T14:52:56.754Z,23.83
2023-03-20T14:55:52.645Z,23.87
2023-03-20T14:58:54.517Z,23.91
2023-03-20T15:01:47.516Z,23.97
2023-03-20T15:04:39.117Z,23.97
2023-03-20T15:07:15.817Z,23.96
2023-03-20T15:09:48.758Z,23.91
2023-03-20T15:12:21.854Z,23.82
2023-03-20T15:14:56.849Z,23.72
2023-03-20T15:17:29.387Z,23.64
2023-03-20T15:20:04.587Z,23.57
2023-03-20T15:22:33.069Z,23.55
2023-03-20T15:25:02.923Z,23.50
2023-03-20T15:27:32.323Z,23.47
2023-03-20T15:30:03.619Z,23.42
2023-03-20T15:32:33.952Z,23.41
2023-03-20T15:35:05.347Z,23.39
2023-03-20T15:37:36.162Z,23.35
2023-03-20T15:40:14.360Z,23.26
2023-03-20T15:42:42.857Z,23.15
2023-03-20T15:45:27.347Z,22.98
2023-03-20T15:48:02.745Z,22.86
2023-03-20T15:50:35.588Z,22.78
2023-03-20T15:53:05.456Z,22.72
2023-03-20T15:55:36.710Z,22.64
2023-03-20T15:58:06.621Z,22.56
2023-03-20T16:00:40.875Z,22.48
2023-03-20T16:03:20.224Z,22.38
2023-03-20T16:05:51.479Z,22.23
2023-03-20T16:08:27.115Z,22.11
2023-03-20T16:11:01.365Z,22.01
2023-03-20T16:13:39.017Z,21.90
2023-03-20T16:16:12.484Z,21.81
2023-03-20T16:18:42.111Z,21.71
2023-03-20T16:21:18.378Z,21.61
2023-03-20T16:23:50.149Z,21.50
2023-03-20T16:26:23.070Z,21.38
2023-03-20T16:28:53.760Z,21.29
2023-03-20T16:31:28.549Z,21.18
2023-03-20T16:34:01.155Z,21.13
2023-03-20T16:36:32.963Z,21.07
2023-03-20T16:39:10.808Z,21.00
2023-03-20T16:41:41.929Z,20.96
2023-03-20T16:44:17.087Z,20.88
2023-03-20T16:47:05.230Z,20.77
2023-03-20T16:50:19.178Z,20.66
2023-03-20T16:52:51.790Z,20.58
2023-03-20T16:55:27.741Z,20.49
2023-03-20T16:58:01.878Z,20.41
2023-03-20T17:00:33.467Z,20.32
2023-03-20T17:03:15.957Z,20.22
2023-03-20T17:05:54.796Z,20.18
2023-03-20T17:08:35.599Z,20.13
2023-03-20T17:11:12.726Z,20.08
2023-03-20T17:13:44.449Z,20.04
2023-03-20T17:16:19.970Z,19.96
2023-03-20T17:18:59.482Z,19.95
2023-03-20T17:21:28.530Z,19.93
2023-03-20T17:23:57.424Z,19.93
2023-03-20T17:26:26.450Z,19.93
2023-03-20T17:28:57.144Z,19.91
2023-03-20T17:31:25.864Z,19.92
2023-03-20T17:33:55.106Z,19.92
2023-03-20T17:36:28.158Z,19.90
2023-03-20T17:38:58.573Z,19.88
2023-03-20T17:41:28.870Z,19.86
2023-03-20T17:43:58.960Z,19.82
2023-03-20T17:46:31.559Z,19.79
2023-03-20T17:49:04.515Z,19.74
2023-03-20T17:51:34.777Z,19.70
2023-03-20T17:54:04.021Z,19.66
2023-03-20T17:56:34.114Z,19.64
2023-03-20T17:59:06.692Z,19.61
2023-03-20T18:01:35.993Z,19.58
2023-03-20T18:04:04.516Z,19.57
2023-03-20T18:06:38.081Z,19.54
2023-03-20T18:09:12.731Z,19.51
2023-03-20T18:11:41.679Z,19.48
2023-03-20T18:14:18.180Z,19.45
2023-03-20T18:16:48.936Z,19.42
2023-03-20T18:19:30.994Z,19.38
2023-03-20T18:22:01.688Z,19.36
2023-03-20T18:24:32.030Z,19.33
2023-03-20T18:27:01.967Z,19.31
2023-03-20T18:29:32.689Z,19.29
2023-03-20T18:32:03.375Z,19.29
2023-03-20T18:34:34.395Z,19.27
2023-03-20T18:37:08.133Z,19.27
2023-03-20T18:39:38.025Z,19.25
2023-03-20T18:42:12.451Z,19.24
2023-03-20T18:44:44.230Z,19.24
2023-03-20T18:47:13.984Z,19.23
2023-03-20T18:49:44.544Z,19.23
2023-03-20T18:52:15.041Z,19.23
2023-03-20T18:54:45.327Z,19.22
2023-03-20T18:57:16.148Z,19.22
2023-03-20T18:59:49.855Z,19.21
2023-03-20T19:02:21.076Z,19.22
2023-03-20T19:04:53.397Z,19.21
2023-03-20T19:07:25.660Z,19.20
2023-03-20T19:09:58.591Z,19.18
2023-03-20T19:12:30.277Z,19.16
2023-03-20T19:15:05.358Z,19.14
2023-03-20T19:17:35.753Z,19.13
2023-03-20T19:20:11.059Z,19.11
2023-03-20T19:22:41.431Z,19.09
2023-03-20T19:25:13.021Z,19.06
2023-03-20T19:27:43.989Z,19.03
2023-03-20T19:30:31.391Z,18.99
2023-03-20T19:33:02.509Z,18.97
2023-03-20T19:36:01.116Z,18.93
2023-03-20T19:38:26.173Z,18.89
2023-03-20T19:40:59.270Z,18.85
2023-03-20T19:43:30.262Z,18.81
2023-03-20T19:46:03.590Z,18.78
2023-03-20T19:48:47.097Z,18.78
2023-03-20T19:51:23.622Z,18.75
2023-03-20T19:53:54.708Z,18.74
2023-03-20T19:56:26.321Z,18.72
2023-03-20T19:58:56.855Z,18.72
2023-03-20T20:01:28.688Z,18.71
2023-03-20T20:03:59.601Z,18.72
2023-03-20T20:06:32.593Z,18.72
2023-03-20T20:09:03.819Z,18.71
2023-03-20T20:11:33.269Z,18.70
2023-03-20T20:14:08.527Z,18.68
2023-03-20T20:16:43.662Z,18.67
2023-03-20T20:19:20.688Z,18.65
2023-03-20T20:24:44.240Z,18.61
2023-03-20T20:27:17.188Z,18.60
2023-03-20T20:29:52.042Z,18.57
2023-03-20T20:32:26.805Z,18.55
2023-03-20T20:35:40.615Z,18.52
2023-03-20T20:38:36.772Z,18.51
2023-03-20T20:40:44.679Z,18.49
2023-03-20T20:43:39.241Z,18.48
2023-03-20T20:46:10.192Z,18.45
2023-03-20T20:48:44.077Z,18.43
2023-03-20T20:51:13.860Z,18.43
2023-03-20T20:53:43.503Z,18.43
2023-03-20T20:56:12.849Z,18.41
2023-03-20T20:58:42.149Z,18.40
2023-03-20T21:01:12.638Z,18.39
2023-03-20T21:03:44.345Z,18.36
2023-03-20T21:06:13.375Z,18.34
2023-03-20T21:08:42.496Z,18.32
2023-03-20T21:11:17.699Z,18.30
2023-03-20T21:13:47.285Z,18.28
2023-03-20T21:16:18.797Z,18.26
2023-03-20T21:18:50.291Z,18.23
2023-03-20T21:21:19.554Z,18.19
2023-03-20T21:23:48.868Z,18.16
2023-03-20T21:26:18.146Z,18.13
2023-03-20T21:28:47.071Z,18.10
2023-03-20T21:31:30.232Z,18.05
2023-03-20T21:34:01.229Z,18.03
2023-03-20T21:36:29.976Z,18.01
2023-03-20T21:39:07.878Z,18.00
2023-03-20T21:41:38.789Z,17.96
2023-03-20T21:44:08.037Z,17.95
2023-03-20T21:58:41.327Z,17.71
2023-03-20T22:04:26.930Z,17.62
2023-03-20T22:07:13.494Z,17.56
2023-03-20T22:12:48.629Z,17.46
2023-03-20T22:18:12.311Z,17.37
2023-03-20T22:21:22.492Z,17.34
2023-03-20T22:29:39.502Z,17.23
2023-03-20T22:35:22.868Z,17.18
2023-03-20T22:41:00.736Z,17.10
2023-03-20T22:46:07.734Z,17.03
2023-03-20T22:48:41.615Z,16.99
2023-03-20T22:51:10.746Z,16.95
2023-03-20T22:53:39.283Z,16.91
2023-03-20T22:56:11.913Z,16.85
2023-03-20T22:58:40.667Z,16.81
2023-03-20T23:01:11.420Z,16.75
2023-03-20T23:03:42.283Z,16.72
2023-03-20T23:06:18.759Z,16.69
2023-03-20T23:08:52.421Z,16.66
2023-03-20T23:11:25.219Z,16.63
2023-03-20T23:13:54.028Z,16.63
2023-03-20T23:16:22.548Z,16.60
2023-03-20T23:18:51.155Z,16.60
2023-03-20T23:21:20.810Z,16.59
2023-03-20T23:23:49.315Z,16.58
2023-03-20T23:26:21.161Z,16.57
2023-03-20T23:28:53.307Z,16.56
2023-03-20T23:31:23.877Z,16.55
2023-03-20T23:33:55.399Z,16.58
2023-03-20T23:36:35.919Z,16.58
2023-03-20T23:39:06.433Z,16.59
2023-03-20T23:42:27.781Z,16.61
2023-03-20T23:44:25.092Z,16.61
2023-03-20T23:46:54.722Z,16.63
2023-03-20T23:49:23.206Z,16.65
2023-03-20T23:51:51.701Z,16.66
2023-03-20T23:54:20.786Z,16.66
2023-03-20T23:56:49.265Z,16.66
2023-03-20T23:59:22.245Z,16.67
